sensor_id;sensor_type;location;lat;lon;timestamp;temperature;humidity
23609;DHT22;11982;50.810;4.442;2023-10-08T00:00:48;15.90;99.90
23609;DHT22;11982;50.810;4.442;2023-10-08T00:03:19;15.90;99.90
23609;DHT22;11982;50.810;4.442;2023-10-08T00:05:46;15.90;99.90
23609;DHT22;11982;50.810;4.442;2023-10-08T00:08:12;15.80;99.90
23609;DHT22;11982;50.810;4.442;2023-10-08T00:10:42;15.80;99.90
23609;DHT22;11982;50.810;4.442;2023-10-08T00:13:09;15.70;99.90
23609;DHT22;11982;50.810;4.442;2023-10-08T00:15:39;15.70;99.90
23609;DHT22;11982;50.810;4.442;2023-10-08T00:18:16;15.60;99.90
23609;DHT22;11982;50.810;4.442;2023-10-08T00:20:42;15.70;99.90
23609;DHT22;11982;50.810;4.442;2023-10-08T00:23:14;15.60;99.90
23609;DHT22;11982;50.810;4.442;2023-10-08T00:25:43;15.50;99.90
23609;DHT22;11982;50.810;4.442;2023-10-08T00:28:12;15.40;99.90
23609;DHT22;11982;50.810;4.442;2023-10-08T00:30:43;15.50;99.90
23609;DHT22;11982;50.810;4.442;2023-10-08T00:33:09;15.40;99.90
23609;DHT22;11982;50.810;4.442;2023-10-08T00:35:38;15.50;99.90
23609;DHT22;11982;50.810;4.442;2023-10-08T00:38:04;15.40;99.90
23609;DHT22;11982;50.810;4.442;2023-10-08T00:40:39;15.40;99.90
23609;DHT22;11982;50.810;4.442;2023-10-08T00:43:05;15.30;99.90
23609;DHT22;11982;50.810;4.442;2023-10-08T00:45:36;15.50;99.90
23609;DHT22;11982;50.810;4.442;2023-10-08T00:48:11;15.50;99.90
23609;DHT22;11982;50.810;4.442;2023-10-08T00:50:43;15.50;99.90
23609;DHT22;11982;50.810;4.442;2023-10-08T00:53:12;15.40;99.90
23609;DHT22;11982;50.810;4.442;2023-10-08T00:55:48;15.30;99.90
23609;DHT22;11982;50.810;4.442;2023-10-08T00:58:32;15.30;99.90
23609;DHT22;11982;50.810;4.442;2023-10-08T01:00:59;15.30;99.90
23609;DHT22;11982;50.810;4.442;2023-10-08T01:03:28;15.40;99.90
23609;DHT22;11982;50.810;4.442;2023-10-08T01:05:55;15.40;99.90
23609;DHT22;11982;50.810;4.442;2023-10-08T01:08:22;15.30;99.90
23609;DHT22;11982;50.810;4.442;2023-10-08T01:11:30;15.20;99.90
23609;DHT22;11982;50.810;4.442;2023-10-08T01:14:11;15.10;99.90
23609;DHT22;11982;50.810;4.442;2023-10-08T01:16:37;15.00;99.90
23609;DHT22;11982;50.810;4.442;2023-10-08T01:19:04;15.00;99.90
23609;DHT22;11982;50.810;4.442;2023-10-08T01:21:37;15.10;99.90
23609;DHT22;11982;50.810;4.442;2023-10-08T01:24:06;15.20;99.90
23609;DHT22;11982;50.810;4.442;2023-10-08T01:26:35;15.00;99.90
23609;DHT22;11982;50.810;4.442;2023-10-08T01:29:08;14.80;99.90
23609;DHT22;11982;50.810;4.442;2023-10-08T01:31:35;14.80;99.90
23609;DHT22;11982;50.810;4.442;2023-10-08T01:34:02;14.80;99.90
23609;DHT22;11982;50.810;4.442;2023-10-08T01:36:30;14.80;99.90
23609;DHT22;11982;50.810;4.442;2023-10-08T01:38:57;14.70;99.90
23609;DHT22;11982;50.810;4.442;2023-10-08T01:41:23;14.70;99.90
23609;DHT22;11982;50.810;4.442;2023-10-08T01:43:56;14.60;99.90
23609;DHT22;11982;50.810;4.442;2023-10-08T01:46:24;14.60;99.90
23609;DHT22;11982;50.810;4.442;2023-10-08T01:48:50;14.50;99.90
23609;DHT22;11982;50.810;4.442;2023-10-08T01:51:25;14.50;99.90
23609;DHT22;11982;50.810;4.442;2023-10-08T01:54:01;14.60;99.90
23609;DHT22;11982;50.810;4.442;2023-10-08T01:56:28;14.60;99.90
23609;DHT22;11982;50.810;4.442;2023-10-08T01:58:55;14.60;99.90
23609;DHT22;11982;50.810;4.442;2023-10-08T02:01:21;14.60;99.90
23609;DHT22;11982;50.810;4.442;2023-10-08T02:03:47;14.70;99.90
23609;DHT22;11982;50.810;4.442;2023-10-08T02:06:13;14.70;99.90
23609;DHT22;11982;50.810;4.442;2023-10-08T02:08:39;14.90;99.90
23609;DHT22;11982;50.810;4.442;2023-10-08T02:11:04;14.70;99.90
23609;DHT22;11982;50.810;4.442;2023-10-08T02:13:31;14.80;99.90
23609;DHT22;11982;50.810;4.442;2023-10-08T02:15:56;14.70;99.90
23609;DHT22;11982;50.810;4.442;2023-10-08T02:18:23;14.70;99.90
23609;DHT22;11982;50.810;4.442;2023-10-08T02:20:50;14.40;99.90
23609;DHT22;11982;50.810;4.442;2023-10-08T02:23:16;14.30;99.90
23609;DHT22;11982;50.810;4.442;2023-10-08T02:25:43;14.40;99.90
23609;DHT22;11982;50.810;4.442;2023-10-08T02:28:10;14.40;99.90
23609;DHT22;11982;50.810;4.442;2023-10-08T02:30:38;14.50;99.90
23609;DHT22;11982;50.810;4.442;2023-10-08T02:33:05;14.40;99.90
23609;DHT22;11982;50.810;4.442;2023-10-08T02:35:40;14.40;99.90
23609;DHT22;11982;50.810;4.442;2023-10-08T02:38:11;14.40;99.90
23609;DHT22;11982;50.810;4.442;2023-10-08T02:40:42;14.50;99.90
23609;DHT22;11982;50.810;4.442;2023-10-08T02:43:13;14.40;99.90
23609;DHT22;11982;50.810;4.442;2023-10-08T02:45:44;14.30;99.90
23609;DHT22;11982;50.810;4.442;2023-10-08T02:48:15;14.40;99.90
23609;DHT22;11982;50.810;4.442;2023-10-08T02:50:44;14.40;99.90
23609;DHT22;11982;50.810;4.442;2023-10-08T02:53:13;14.60;99.90
23609;DHT22;11982;50.810;4.442;2023-10-08T02:55:45;14.50;99.90
23609;DHT22;11982;50.810;4.442;2023-10-08T02:58:15;14.40;99.90
23609;DHT22;11982;50.810;4.442;2023-10-08T03:00:45;14.40;99.90
23609;DHT22;11982;50.810;4.442;2023-10-08T03:03:16;14.50;99.90
23609;DHT22;11982;50.810;4.442;2023-10-08T03:05:52;14.70;99.90
23609;DHT22;11982;50.810;4.442;2023-10-08T03:08:19;14.60;99.90
23609;DHT22;11982;50.810;4.442;2023-10-08T03:10:49;14.60;99.90
23609;DHT22;11982;50.810;4.442;2023-10-08T03:13:22;14.80;99.90
23609;DHT22;11982;50.810;4.442;2023-10-08T03:15:48;14.70;99.90
23609;DHT22;11982;50.810;4.442;2023-10-08T03:18:16;14.60;99.90
23609;DHT22;11982;50.810;4.442;2023-10-08T03:20:42;14.70;99.90
23609;DHT22;11982;50.810;4.442;2023-10-08T03:23:10;14.60;99.90
23609;DHT22;11982;50.810;4.442;2023-10-08T03:25:58;14.60;99.90
23609;DHT22;11982;50.810;4.442;2023-10-08T03:29:02;14.50;99.90
23609;DHT22;11982;50.810;4.442;2023-10-08T03:31:31;14.50;99.90
23609;DHT22;11982;50.810;4.442;2023-10-08T03:34:16;14.60;99.90
23609;DHT22;11982;50.810;4.442;2023-10-08T03:37:00;14.60;99.90
23609;DHT22;11982;50.810;4.442;2023-10-08T03:39:33;14.60;99.90
23609;DHT22;11982;50.810;4.442;2023-10-08T03:42:28;14.50;99.90
23609;DHT22;11982;50.810;4.442;2023-10-08T03:44:59;14.60;99.90
23609;DHT22;11982;50.810;4.442;2023-10-08T03:47:36;14.60;99.90
23609;DHT22;11982;50.810;4.442;2023-10-08T03:50:05;14.50;99.90
23609;DHT22;11982;50.810;4.442;2023-10-08T03:52:31;14.70;99.90
23609;DHT22;11982;50.810;4.442;2023-10-08T03:55:03;14.70;99.90
23609;DHT22;11982;50.810;4.442;2023-10-08T03:57:44;14.40;99.90
23609;DHT22;11982;50.810;4.442;2023-10-08T04:00:14;14.40;99.90
23609;DHT22;11982;50.810;4.442;2023-10-08T04:02:47;14.50;99.90
23609;DHT22;11982;50.810;4.442;2023-10-08T04:05:29;14.50;99.90
23609;DHT22;11982;50.810;4.442;2023-10-08T04:08:06;14.50;99.90
23609;DHT22;11982;50.810;4.442;2023-10-08T04:10:43;14.60;99.90
23609;DHT22;11982;50.810;4.442;2023-10-08T04:13:09;14.40;99.90
23609;DHT22;11982;50.810;4.442;2023-10-08T04:15:38;14.30;99.90
23609;DHT22;11982;50.810;4.442;2023-10-08T04:18:10;14.30;99.90
23609;DHT22;11982;50.810;4.442;2023-10-08T04:20:36;14.20;99.90
23609;DHT22;11982;50.810;4.442;2023-10-08T04:23:09;14.20;99.90
23609;DHT22;11982;50.810;4.442;2023-10-08T04:25:39;14.20;99.90
23609;DHT22;11982;50.810;4.442;2023-10-08T04:28:07;14.00;99.90
23609;DHT22;11982;50.810;4.442;2023-10-08T04:30:38;14.10;99.90
23609;DHT22;11982;50.810;4.442;2023-10-08T04:33:08;14.10;99.90
23609;DHT22;11982;50.810;4.442;2023-10-08T04:35:37;14.00;99.90
23609;DHT22;11982;50.810;4.442;2023-10-08T04:38:17;14.10;99.90
23609;DHT22;11982;50.810;4.442;2023-10-08T04:40:48;13.90;99.90
23609;DHT22;11982;50.810;4.442;2023-10-08T04:43:31;13.70;99.90
23609;DHT22;11982;50.810;4.442;2023-10-08T04:45:58;13.80;99.90
23609;DHT22;11982;50.810;4.442;2023-10-08T04:48:26;13.80;99.90
23609;DHT22;11982;50.810;4.442;2023-10-08T04:50:58;13.70;99.90
23609;DHT22;11982;50.810;4.442;2023-10-08T04:53:32;13.60;99.90
23609;DHT22;11982;50.810;4.442;2023-10-08T04:56:02;13.60;99.90
23609;DHT22;11982;50.810;4.442;2023-10-08T04:58:31;13.70;99.90
23609;DHT22;11982;50.810;4.442;2023-10-08T05:01:03;13.80;99.90
23609;DHT22;11982;50.810;4.442;2023-10-08T05:03:53;13.80;99.90
23609;DHT22;11982;50.810;4.442;2023-10-08T05:06:30;13.90;99.90
23609;DHT22;11982;50.810;4.442;2023-10-08T05:08:58;13.70;99.90
23609;DHT22;11982;50.810;4.442;2023-10-08T05:11:24;13.90;99.90
23609;DHT22;11982;50.810;4.442;2023-10-08T05:14:01;13.80;99.90
23609;DHT22;11982;50.810;4.442;2023-10-08T05:16:42;13.70;99.90
23609;DHT22;11982;50.810;4.442;2023-10-08T05:19:26;13.70;99.90
23609;DHT22;11982;50.810;4.442;2023-10-08T05:22:16;13.70;99.90
23609;DHT22;11982;50.810;4.442;2023-10-08T05:24:49;13.70;99.90
23609;DHT22;11982;50.810;4.442;2023-10-08T05:27:34;13.50;99.90
23609;DHT22;11982;50.810;4.442;2023-10-08T05:30:26;13.60;99.90
23609;DHT22;11982;50.810;4.442;2023-10-08T05:33:09;13.70;99.90
23609;DHT22;11982;50.810;4.442;2023-10-08T05:35:41;13.80;99.90
23609;DHT22;11982;50.810;4.442;2023-10-08T05:38:08;13.90;99.90
23609;DHT22;11982;50.810;4.442;2023-10-08T05:40:53;13.80;99.90
23609;DHT22;11982;50.810;4.442;2023-10-08T05:43:35;13.80;99.90
23609;DHT22;11982;50.810;4.442;2023-10-08T05:46:04;13.80;99.90
23609;DHT22;11982;50.810;4.442;2023-10-08T05:48:45;13.70;99.90
23609;DHT22;11982;50.810;4.442;2023-10-08T05:51:16;13.70;99.90
23609;DHT22;11982;50.810;4.442;2023-10-08T05:53:59;13.80;99.90
23609;DHT22;11982;50.810;4.442;2023-10-08T05:56:32;13.80;99.90
23609;DHT22;11982;50.810;4.442;2023-10-08T05:59:17;13.70;99.90
23609;DHT22;11982;50.810;4.442;2023-10-08T06:01:52;13.70;99.90
23609;DHT22;11982;50.810;4.442;2023-10-08T06:04:31;13.70;99.90
23609;DHT22;11982;50.810;4.442;2023-10-08T06:07:08;13.70;99.90
23609;DHT22;11982;50.810;4.442;2023-10-08T06:09:48;13.70;99.90
23609;DHT22;11982;50.810;4.442;2023-10-08T06:12:28;13.80;99.90
23609;DHT22;11982;50.810;4.442;2023-10-08T06:15:05;13.90;99.90
23609;DHT22;11982;50.810;4.442;2023-10-08T06:17:35;13.90;99.90
23609;DHT22;11982;50.810;4.442;2023-10-08T06:20:22;13.80;99.90
23609;DHT22;11982;50.810;4.442;2023-10-08T06:22:52;13.70;99.90
23609;DHT22;11982;50.810;4.442;2023-10-08T06:25:20;13.70;99.90
23609;DHT22;11982;50.810;4.442;2023-10-08T06:27:55;13.70;99.90
23609;DHT22;11982;50.810;4.442;2023-10-08T06:30:23;13.90;99.90
23609;DHT22;11982;50.810;4.442;2023-10-08T06:32:54;13.90;99.90
23609;DHT22;11982;50.810;4.442;2023-10-08T06:35:20;13.90;99.90
23609;DHT22;11982;50.810;4.442;2023-10-08T06:37:50;14.00;99.90
23609;DHT22;11982;50.810;4.442;2023-10-08T06:40:20;14.30;99.90
23609;DHT22;11982;50.810;4.442;2023-10-08T06:43:05;14.50;99.90
23609;DHT22;11982;50.810;4.442;2023-10-08T06:45:44;14.60;99.90
23609;DHT22;11982;50.810;4.442;2023-10-08T06:48:11;14.50;99.90
23609;DHT22;11982;50.810;4.442;2023-10-08T06:50:47;14.70;99.90
23609;DHT22;11982;50.810;4.442;2023-10-08T06:56:16;14.90;99.90
23609;DHT22;11982;50.810;4.442;2023-10-08T06:58:44;15.10;99.90
23609;DHT22;11982;50.810;4.442;2023-10-08T07:01:22;15.10;99.90
23609;DHT22;11982;50.810;4.442;2023-10-08T07:03:50;15.30;99.90
23609;DHT22;11982;50.810;4.442;2023-10-08T07:06:19;15.30;99.90
23609;DHT22;11982;50.810;4.442;2023-10-08T07:08:52;15.30;99.90
23609;DHT22;11982;50.810;4.442;2023-10-08T07:11:22;15.20;99.90
23609;DHT22;11982;50.810;4.442;2023-10-08T07:13:48;15.40;99.90
23609;DHT22;11982;50.810;4.442;2023-10-08T07:16:16;15.60;99.90
23609;DHT22;11982;50.810;4.442;2023-10-08T07:18:45;15.60;99.90
23609;DHT22;11982;50.810;4.442;2023-10-08T07:21:18;15.90;99.90
23609;DHT22;11982;50.810;4.442;2023-10-08T07:23:44;16.10;99.90
23609;DHT22;11982;50.810;4.442;2023-10-08T07:26:27;16.50;99.90
23609;DHT22;11982;50.810;4.442;2023-10-08T07:29:04;16.50;99.90
23609;DHT22;11982;50.810;4.442;2023-10-08T07:31:37;16.60;99.90
23609;DHT22;11982;50.810;4.442;2023-10-08T07:34:18;16.90;99.90
23609;DHT22;11982;50.810;4.442;2023-10-08T07:36:48;16.60;99.90
23609;DHT22;11982;50.810;4.442;2023-10-08T07:39:18;16.50;99.90
23609;DHT22;11982;50.810;4.442;2023-10-08T07:41:56;16.20;99.90
23609;DHT22;11982;50.810;4.442;2023-10-08T07:44:23;16.30;99.90
23609;DHT22;11982;50.810;4.442;2023-10-08T07:46:59;16.30;99.90
23609;DHT22;11982;50.810;4.442;2023-10-08T07:49:25;16.30;99.90
23609;DHT22;11982;50.810;4.442;2023-10-08T07:51:52;16.30;99.90
23609;DHT22;11982;50.810;4.442;2023-10-08T07:54:18;16.40;99.90
23609;DHT22;11982;50.810;4.442;2023-10-08T07:56:46;16.60;99.90
23609;DHT22;11982;50.810;4.442;2023-10-08T07:59:15;16.50;99.90
23609;DHT22;11982;50.810;4.442;2023-10-08T08:04:36;16.40;99.90
23609;DHT22;11982;50.810;4.442;2023-10-08T08:07:02;16.60;99.90
23609;DHT22;11982;50.810;4.442;2023-10-08T08:09:30;16.60;99.90
23609;DHT22;11982;50.810;4.442;2023-10-08T08:11:56;16.60;99.90
23609;DHT22;11982;50.810;4.442;2023-10-08T08:17:21;16.70;99.90
23609;DHT22;11982;50.810;4.442;2023-10-08T08:19:49;16.80;99.90
23609;DHT22;11982;50.810;4.442;2023-10-08T08:22:16;16.80;99.90
23609;DHT22;11982;50.810;4.442;2023-10-08T08:24:53;16.90;99.90
23609;DHT22;11982;50.810;4.442;2023-10-08T08:27:21;16.90;99.90
23609;DHT22;11982;50.810;4.442;2023-10-08T08:29:52;16.80;99.90
23609;DHT22;11982;50.810;4.442;2023-10-08T08:32:22;17.00;99.90
23609;DHT22;11982;50.810;4.442;2023-10-08T08:34:49;17.10;99.90
23609;DHT22;11982;50.810;4.442;2023-10-08T08:37:18;17.30;99.90
23609;DHT22;11982;50.810;4.442;2023-10-08T08:39:43;17.30;99.90
23609;DHT22;11982;50.810;4.442;2023-10-08T08:42:11;17.50;99.90
23609;DHT22;11982;50.810;4.442;2023-10-08T08:44:38;17.50;99.90
23609;DHT22;11982;50.810;4.442;2023-10-08T08:47:13;17.60;99.90
23609;DHT22;11982;50.810;4.442;2023-10-08T08:49:50;17.80;99.90
23609;DHT22;11982;50.810;4.442;2023-10-08T08:52:20;18.00;99.90
23609;DHT22;11982;50.810;4.442;2023-10-08T08:54:47;17.90;99.90
23609;DHT22;11982;50.810;4.442;2023-10-08T08:57:13;17.90;99.90
23609;DHT22;11982;50.810;4.442;2023-10-08T08:59:53;17.90;99.90
23609;DHT22;11982;50.810;4.442;2023-10-08T09:02:19;18.20;99.90
23609;DHT22;11982;50.810;4.442;2023-10-08T09:04:47;18.00;99.90
23609;DHT22;11982;50.810;4.442;2023-10-08T09:07:14;17.90;99.90
23609;DHT22;11982;50.810;4.442;2023-10-08T09:09:40;18.00;99.90
23609;DHT22;11982;50.810;4.442;2023-10-08T09:15:26;18.40;99.90
23609;DHT22;11982;50.810;4.442;2023-10-08T09:17:57;18.50;99.90
23609;DHT22;11982;50.810;4.442;2023-10-08T09:20:37;18.60;99.90
23609;DHT22;11982;50.810;4.442;2023-10-08T09:23:15;18.70;99.90
23609;DHT22;11982;50.810;4.442;2023-10-08T09:25:44;18.80;99.90
23609;DHT22;11982;50.810;4.442;2023-10-08T09:28:10;19.00;99.90
23609;DHT22;11982;50.810;4.442;2023-10-08T09:30:39;18.90;99.90
23609;DHT22;11982;50.810;4.442;2023-10-08T09:33:10;18.80;99.90
23609;DHT22;11982;50.810;4.442;2023-10-08T09:35:36;18.70;99.90
23609;DHT22;11982;50.810;4.442;2023-10-08T09:38:06;18.70;99.90
23609;DHT22;11982;50.810;4.442;2023-10-08T09:40:39;18.70;99.90
23609;DHT22;11982;50.810;4.442;2023-10-08T09:43:11;18.90;99.90
23609;DHT22;11982;50.810;4.442;2023-10-08T09:45:38;18.90;99.90
23609;DHT22;11982;50.810;4.442;2023-10-08T09:48:10;19.00;99.90
23609;DHT22;11982;50.810;4.442;2023-10-08T09:50:40;19.20;99.90
23609;DHT22;11982;50.810;4.442;2023-10-08T09:53:16;19.10;99.90
23609;DHT22;11982;50.810;4.442;2023-10-08T09:55:55;19.20;99.90
23609;DHT22;11982;50.810;4.442;2023-10-08T09:58:22;19.50;99.90
23609;DHT22;11982;50.810;4.442;2023-10-08T10:00:53;19.60;99.90
23609;DHT22;11982;50.810;4.442;2023-10-08T10:03:20;19.90;99.90
23609;DHT22;11982;50.810;4.442;2023-10-08T10:05:49;20.20;99.90
23609;DHT22;11982;50.810;4.442;2023-10-08T10:08:18;20.00;99.90
23609;DHT22;11982;50.810;4.442;2023-10-08T10:10:45;20.30;99.90
23609;DHT22;11982;50.810;4.442;2023-10-08T10:13:15;20.30;99.90
23609;DHT22;11982;50.810;4.442;2023-10-08T10:15:42;20.60;99.90
23609;DHT22;11982;50.810;4.442;2023-10-08T10:23:56;20.80;99.90
23609;DHT22;11982;50.810;4.442;2023-10-08T10:31:38;20.50;99.90
23609;DHT22;11982;50.810;4.442;2023-10-08T10:34:10;20.60;99.90
23609;DHT22;11982;50.810;4.442;2023-10-08T10:36:37;20.60;99.90
23609;DHT22;11982;50.810;4.442;2023-10-08T10:39:05;20.60;99.90
23609;DHT22;11982;50.810;4.442;2023-10-08T10:42:04;20.90;99.90
23609;DHT22;11982;50.810;4.442;2023-10-08T10:44:32;20.70;99.90
23609;DHT22;11982;50.810;4.442;2023-10-08T10:47:02;20.80;99.90
23609;DHT22;11982;50.810;4.442;2023-10-08T10:49:50;20.90;99.90
23609;DHT22;11982;50.810;4.442;2023-10-08T10:52:17;21.20;99.90
23609;DHT22;11982;50.810;4.442;2023-10-08T10:55:15;21.00;99.90
23609;DHT22;11982;50.810;4.442;2023-10-08T10:57:54;20.90;99.90
23609;DHT22;11982;50.810;4.442;2023-10-08T11:00:30;21.00;99.90
23609;DHT22;11982;50.810;4.442;2023-10-08T11:03:01;21.10;99.90
23609;DHT22;11982;50.810;4.442;2023-10-08T11:05:37;21.10;99.90
23609;DHT22;11982;50.810;4.442;2023-10-08T11:08:05;20.90;99.90
23609;DHT22;11982;50.810;4.442;2023-10-08T11:10:34;21.10;99.90
23609;DHT22;11982;50.810;4.442;2023-10-08T11:13:05;21.10;99.90
23609;DHT22;11982;50.810;4.442;2023-10-08T11:15:40;21.20;99.90
23609;DHT22;11982;50.810;4.442;2023-10-08T11:18:13;21.40;99.90
23609;DHT22;11982;50.810;4.442;2023-10-08T11:20:42;21.20;99.90
23609;DHT22;11982;50.810;4.442;2023-10-08T11:23:40;21.20;99.90
23609;DHT22;11982;50.810;4.442;2023-10-08T11:26:07;21.30;99.90
23609;DHT22;11982;50.810;4.442;2023-10-08T11:28:37;21.40;99.90
23609;DHT22;11982;50.810;4.442;2023-10-08T11:31:16;21.40;99.90
23609;DHT22;11982;50.810;4.442;2023-10-08T11:33:45;21.70;99.90
23609;DHT22;11982;50.810;4.442;2023-10-08T11:36:21;21.90;99.90
23609;DHT22;11982;50.810;4.442;2023-10-08T11:38:56;21.80;99.90
23609;DHT22;11982;50.810;4.442;2023-10-08T11:41:32;21.90;99.90
23609;DHT22;11982;50.810;4.442;2023-10-08T11:44:15;21.70;99.90
23609;DHT22;11982;50.810;4.442;2023-10-08T11:46:45;21.30;99.90
23609;DHT22;11982;50.810;4.442;2023-10-08T11:49:11;21.10;99.90
23609;DHT22;11982;50.810;4.442;2023-10-08T11:51:51;21.40;99.90
23609;DHT22;11982;50.810;4.442;2023-10-08T11:54:21;21.40;99.90
23609;DHT22;11982;50.810;4.442;2023-10-08T11:56:51;21.30;99.90
23609;DHT22;11982;50.810;4.442;2023-10-08T12:02:08;21.70;99.90
23609;DHT22;11982;50.810;4.442;2023-10-08T12:04:34;21.90;99.90
23609;DHT22;11982;50.810;4.442;2023-10-08T12:07:01;22.00;99.90
23609;DHT22;11982;50.810;4.442;2023-10-08T12:09:34;22.00;99.90
23609;DHT22;11982;50.810;4.442;2023-10-08T12:12:04;21.90;99.90
23609;DHT22;11982;50.810;4.442;2023-10-08T12:14:36;22.10;99.90
23609;DHT22;11982;50.810;4.442;2023-10-08T12:17:03;22.20;99.90
23609;DHT22;11982;50.810;4.442;2023-10-08T12:19:37;22.30;99.90
23609;DHT22;11982;50.810;4.442;2023-10-08T12:22:05;22.30;99.90
23609;DHT22;11982;50.810;4.442;2023-10-08T12:24:34;22.10;99.90
23609;DHT22;11982;50.810;4.442;2023-10-08T12:26:59;21.90;99.90
23609;DHT22;11982;50.810;4.442;2023-10-08T12:29:28;21.90;99.90
23609;DHT22;11982;50.810;4.442;2023-10-08T12:31:56;22.20;99.90
23609;DHT22;11982;50.810;4.442;2023-10-08T12:34:25;22.40;99.90
23609;DHT22;11982;50.810;4.442;2023-10-08T12:36:51;22.70;99.90
23609;DHT22;11982;50.810;4.442;2023-10-08T12:39:17;23.10;99.90
23609;DHT22;11982;50.810;4.442;2023-10-08T12:41:43;23.00;99.90
23609;DHT22;11982;50.810;4.442;2023-10-08T12:44:10;23.00;99.90
23609;DHT22;11982;50.810;4.442;2023-10-08T12:46:36;22.80;99.90
23609;DHT22;11982;50.810;4.442;2023-10-08T12:49:02;22.60;99.90
23609;DHT22;11982;50.810;4.442;2023-10-08T12:51:29;22.60;99.90
23609;DHT22;11982;50.810;4.442;2023-10-08T12:53:59;22.30;99.90
23609;DHT22;11982;50.810;4.442;2023-10-08T12:56:29;22.40;99.90
23609;DHT22;11982;50.810;4.442;2023-10-08T12:59:03;22.40;99.90
23609;DHT22;11982;50.810;4.442;2023-10-08T13:01:35;22.60;99.90
23609;DHT22;11982;50.810;4.442;2023-10-08T13:04:02;23.00;99.90
23609;DHT22;11982;50.810;4.442;2023-10-08T13:09:18;23.00;99.90
23609;DHT22;11982;50.810;4.442;2023-10-08T13:11:44;22.80;99.90
23609;DHT22;11982;50.810;4.442;2023-10-08T13:14:11;22.70;99.90
23609;DHT22;11982;50.810;4.442;2023-10-08T13:16:36;22.70;99.90
23609;DHT22;11982;50.810;4.442;2023-10-08T13:21:46;22.70;99.90
23609;DHT22;11982;50.810;4.442;2023-10-08T13:24:13;22.70;99.90
23609;DHT22;11982;50.810;4.442;2023-10-08T13:26:39;22.60;99.90
23609;DHT22;11982;50.810;4.442;2023-10-08T13:29:05;22.60;99.90
23609;DHT22;11982;50.810;4.442;2023-10-08T13:31:31;22.70;99.90
23609;DHT22;11982;50.810;4.442;2023-10-08T13:34:01;22.80;99.90
23609;DHT22;11982;50.810;4.442;2023-10-08T13:36:30;22.50;99.90
23609;DHT22;11982;50.810;4.442;2023-10-08T13:38:56;22.70;99.90
23609;DHT22;11982;50.810;4.442;2023-10-08T13:41:21;22.80;99.90
23609;DHT22;11982;50.810;4.442;2023-10-08T13:43:48;22.70;99.90
23609;DHT22;11982;50.810;4.442;2023-10-08T13:46:18;22.60;99.90
23609;DHT22;11982;50.810;4.442;2023-10-08T13:48:47;22.60;99.90
23609;DHT22;11982;50.810;4.442;2023-10-08T13:51:16;22.70;99.90
23609;DHT22;11982;50.810;4.442;2023-10-08T13:54:04;23.00;99.90
23609;DHT22;11982;50.810;4.442;2023-10-08T13:56:34;22.90;99.90
23609;DHT22;11982;50.810;4.442;2023-10-08T13:59:03;22.80;99.90
23609;DHT22;11982;50.810;4.442;2023-10-08T14:01:32;22.70;99.90
23609;DHT22;11982;50.810;4.442;2023-10-08T14:04:01;22.70;99.90
23609;DHT22;11982;50.810;4.442;2023-10-08T14:06:36;22.60;99.90
23609;DHT22;11982;50.810;4.442;2023-10-08T14:09:03;22.50;99.90
23609;DHT22;11982;50.810;4.442;2023-10-08T14:11:33;22.60;99.90
23609;DHT22;11982;50.810;4.442;2023-10-08T14:13:59;22.60;99.90
23609;DHT22;11982;50.810;4.442;2023-10-08T14:16:28;22.50;99.90
23609;DHT22;11982;50.810;4.442;2023-10-08T14:18:56;22.40;99.90
23609;DHT22;11982;50.810;4.442;2023-10-08T14:21:26;22.40;99.90
23609;DHT22;11982;50.810;4.442;2023-10-08T14:24:02;22.50;99.90
23609;DHT22;11982;50.810;4.442;2023-10-08T14:26:31;22.50;99.90
23609;DHT22;11982;50.810;4.442;2023-10-08T14:29:02;22.50;99.90
23609;DHT22;11982;50.810;4.442;2023-10-08T14:31:50;22.60;99.90
23609;DHT22;11982;50.810;4.442;2023-10-08T14:34:23;22.80;99.90
23609;DHT22;11982;50.810;4.442;2023-10-08T14:37:08;22.70;99.90
23609;DHT22;11982;50.810;4.442;2023-10-08T14:39:52;22.90;99.90
23609;DHT22;11982;50.810;4.442;2023-10-08T14:42:37;23.00;99.90
23609;DHT22;11982;50.810;4.442;2023-10-08T14:45:31;23.10;99.90
23609;DHT22;11982;50.810;4.442;2023-10-08T14:47:59;23.20;99.90
23609;DHT22;11982;50.810;4.442;2023-10-08T14:50:26;23.10;99.90
23609;DHT22;11982;50.810;4.442;2023-10-08T14:52:57;23.20;99.90
23609;DHT22;11982;50.810;4.442;2023-10-08T14:55:24;23.10;99.90
23609;DHT22;11982;50.810;4.442;2023-10-08T14:57:50;23.00;99.90
23609;DHT22;11982;50.810;4.442;2023-10-08T15:00:18;23.00;99.90
23609;DHT22;11982;50.810;4.442;2023-10-08T15:02:53;23.00;99.90
23609;DHT22;11982;50.810;4.442;2023-10-08T15:05:23;22.70;99.90
23609;DHT22;11982;50.810;4.442;2023-10-08T15:07:50;22.70;99.90
23609;DHT22;11982;50.810;4.442;2023-10-08T15:10:17;22.70;99.90
23609;DHT22;11982;50.810;4.442;2023-10-08T15:12:43;22.60;99.90
23609;DHT22;11982;50.810;4.442;2023-10-08T15:17:50;22.50;99.90
23609;DHT22;11982;50.810;4.442;2023-10-08T15:20:17;22.50;99.90
23609;DHT22;11982;50.810;4.442;2023-10-08T15:22:46;22.40;99.90
23609;DHT22;11982;50.810;4.442;2023-10-08T15:25:14;22.40;99.90
23609;DHT22;11982;50.810;4.442;2023-10-08T15:27:42;22.50;99.90
23609;DHT22;11982;50.810;4.442;2023-10-08T15:30:14;22.60;99.90
23609;DHT22;11982;50.810;4.442;2023-10-08T15:32:42;22.80;99.90
23609;DHT22;11982;50.810;4.442;2023-10-08T15:35:13;22.70;99.90
23609;DHT22;11982;50.810;4.442;2023-10-08T15:37:42;22.60;99.90
23609;DHT22;11982;50.810;4.442;2023-10-08T15:40:10;22.30;99.90
23609;DHT22;11982;50.810;4.442;2023-10-08T15:42:44;22.20;99.90
23609;DHT22;11982;50.810;4.442;2023-10-08T15:45:12;22.20;99.90
23609;DHT22;11982;50.810;4.442;2023-10-08T15:47:40;22.30;99.90
23609;DHT22;11982;50.810;4.442;2023-10-08T15:50:06;22.40;99.90
23609;DHT22;11982;50.810;4.442;2023-10-08T15:52:36;22.40;99.90
23609;DHT22;11982;50.810;4.442;2023-10-08T15:55:02;22.60;99.90
23609;DHT22;11982;50.810;4.442;2023-10-08T15:57:29;22.60;99.90
23609;DHT22;11982;50.810;4.442;2023-10-08T15:59:55;22.40;99.90
23609;DHT22;11982;50.810;4.442;2023-10-08T16:02:21;22.30;99.90
23609;DHT22;11982;50.810;4.442;2023-10-08T16:04:47;22.20;99.90
23609;DHT22;11982;50.810;4.442;2023-10-08T16:07:13;22.20;99.90
23609;DHT22;11982;50.810;4.442;2023-10-08T16:09:39;22.20;99.90
23609;DHT22;11982;50.810;4.442;2023-10-08T16:12:08;22.40;99.90
23609;DHT22;11982;50.810;4.442;2023-10-08T16:14:35;22.60;99.90
23609;DHT22;11982;50.810;4.442;2023-10-08T16:17:01;22.60;99.90
23609;DHT22;11982;50.810;4.442;2023-10-08T16:19:30;22.80;99.90
23609;DHT22;11982;50.810;4.442;2023-10-08T16:21:57;22.70;99.90
23609;DHT22;11982;50.810;4.442;2023-10-08T16:24:22;22.50;99.90
23609;DHT22;11982;50.810;4.442;2023-10-08T16:26:51;22.30;99.90
23609;DHT22;11982;50.810;4.442;2023-10-08T16:29:19;22.10;99.90